Time;durP1;ratioP1;P1;durP2;ratioP2;P2;SDS_P1;SDS_P2;PMS_P1;PMS_P2;Temp;Humidity;BMP_temperature;BMP_pressure;BME280_temperature;BME280_humidity;BME280_pressure;Samples;Min_cycle;Max_cycle;Signal;HPM_P1;HPM_P2
2022/04/11 00:00:10;;;;;;;5.43;4.33;;;;;;;;;;5026257;28;20064;-57
2022/04/11 00:08:55;;;;;;;5.07;4.37;;;;;;;;;;4989493;28;20057;-56
2022/04/11 00:14:45;;;;;;;7.57;4.83;;;;;;;;;;5027577;28;20044;-55
2022/04/11 00:17:27;;;;;;;6.60;5.37;;;;;;;;;;5025723;28;20038;-57
2022/04/11 00:20:20;;;;;;;6.13;5.50;;;;;;;;;;5026750;28;20049;-56
2022/04/11 00:22:56;;;;;;;5.47;4.97;;;;;;;;;;5026362;28;20036;-55
2022/04/11 00:28:39;;;;;;;9.67;4.57;;;;;;;;;;4971365;28;20135;-57
2022/04/11 00:31:52;;;;;;;;;;;;;;;;;;;;;
2022/04/11 00:34:35;;;;;;;5.43;4.70;;;;;;;;;;5024974;28;20064;-56
2022/04/11 00:37:31;;;;;;;6.30;4.40;;;;;;;;;;4985232;28;20042;-57
2022/04/11 00:40:08;;;;;;;7.07;5.10;;;;;;;;;;4986784;28;20026;-58
2022/04/11 00:45:55;;;;;;;5.43;4.93;;;;;;;;;;4998919;28;20034;-57
2022/04/11 00:48:40;;;;;;;5.53;4.60;;;;;;;;;;5026244;28;20026;-56
2022/04/11 00:51:18;;;;;;;6.77;5.93;;;;;;;;;;5026898;28;20030;-56
2022/04/11 00:56:54;;;;;;;7.57;5.57;;;;;;;;;;5012233;28;20034;-56
2022/04/11 01:02:52;;;;;;;;;;;;;;;;;;;;;
2022/04/11 01:05:57;;;;;;;6.67;4.67;;;;;;;;;;5019991;28;20069;-55
2022/04/11 01:14:03;;;;;;;5.47;4.90;;;;;;;;;;5026873;28;20041;-55
2022/04/11 01:19:32;;;;;;;6.47;5.50;;;;;;;;;;5017602;28;20041;-56
2022/04/11 01:22:06;;;;;;;6.90;5.47;;;;;;;;;;5026688;28;20038;-57
2022/04/11 01:24:51;;;;;;;7.87;4.57;;;;;;;;;;5026938;28;20029;-55
2022/04/11 01:39:13;;;;;;;9.70;6.63;;;;;;;;;;5025507;28;20406;-55
2022/04/11 01:42:00;;;;;;;5.60;4.90;;;;;;;;;;5026226;28;20077;-56
2022/04/11 01:45:18;;;;;;;5.73;4.90;;;;;;;;;;5026246;28;20033;-56
2022/04/11 01:48:19;;;;;;;6.87;4.93;;;;;;;;;;4963992;28;20937;-58
2022/04/11 01:50:52;;;;;;;6.80;5.00;;;;;;;;;;4946978;29;20206;-55
2022/04/11 01:53:28;;;;;;;7.77;4.53;;;;;;;;;;4966028;28;20032;-57
2022/04/11 01:59:01;;;;;;;7.47;5.17;;;;;;;;;;4967524;28;20059;-56
2022/04/11 02:01:51;;;;;;;6.50;5.83;;;;;;;;;;5013579;28;20105;-56
2022/04/11 02:04:36;;;;;;;7.00;5.67;;;;;;;;;;5001492;28;20053;-55
2022/04/11 02:07:34;;;;;;;5.90;5.00;;;;;;;;;;5029412;28;20025;-57
2022/04/11 02:10:17;;;;;;;6.37;5.30;;;;;;;;;;5029187;28;20041;-57
2022/04/11 02:13:10;;;;;;;8.10;5.77;;;;;;;;;;5029635;28;20058;-57
2022/04/11 02:19:02;;;;;;;6.28;5.38;;;;;;;;;;4999603;28;20030;-56
2022/04/11 02:30:43;;;;;;;;;;;;;;;;;;;;;
2022/04/11 02:33:41;;;;;;;;;;;;;;;;;;;;;
2022/04/11 02:36:55;;;;;;;5.77;4.57;;;;;;;;;;5017283;28;20066;-57
2022/04/11 02:39:53;;;;;;;8.37;5.37;;;;;;;;;;5022736;28;20054;-55
2022/04/11 02:42:32;;;;;;;8.03;4.57;;;;;;;;;;4967860;29;20068;-55
2022/04/11 02:45:05;;;;;;;5.57;4.73;;;;;;;;;;4967720;29;20047;-57
2022/04/11 02:50:37;;;;;;;9.20;5.63;;;;;;;;;;5029048;28;20036;-56
2022/04/11 02:56:36;;;;;;;6.63;5.47;;;;;;;;;;4995284;28;20065;-57
2022/04/11 02:59:06;;;;;;;7.90;6.07;;;;;;;;;;5027573;28;20049;-57
2022/04/11 03:01:50;;;;;;;5.30;4.80;;;;;;;;;;5028563;28;20069;-57
2022/04/11 03:04:32;;;;;;;7.47;5.73;;;;;;;;;;5028449;28;20053;-57
2022/04/11 03:07:02;;;;;;;11.07;4.83;;;;;;;;;;5028254;28;20026;-56
2022/04/11 03:10:13;;;;;;;6.45;5.43;;;;;;;;;;5028265;28;20046;-57
2022/04/11 03:13:17;;;;;;;4.68;4.13;;;;;;;;;;5027996;28;20041;-56
2022/04/11 03:16:04;;;;;;;5.73;5.07;;;;;;;;;;5028482;28;20041;-57
2022/04/11 03:18:57;;;;;;;10.37;5.47;;;;;;;;;;5027530;28;20384;-56
2022/04/11 03:21:38;;;;;;;6.50;5.13;;;;;;;;;;4999612;28;20049;-56
2022/04/11 03:24:33;;;;;;;7.17;5.77;;;;;;;;;;5027961;28;20065;-57
2022/04/11 03:27:10;;;;;;;6.50;5.67;;;;;;;;;;5005772;28;20403;-57
2022/04/11 03:32:56;;;;;;;4.90;4.40;;;;;;;;;;4961487;28;20031;-55
2022/04/11 03:42:01;;;;;;;6.23;5.20;;;;;;;;;;4977468;28;20042;-56
2022/04/11 03:44:38;;;;;;;6.87;4.97;;;;;;;;;;4984850;28;20035;-55
2022/04/11 03:50:18;;;;;;;6.90;5.70;;;;;;;;;;5047356;28;20036;-55
2022/04/11 03:53:02;;;;;;;6.90;4.60;;;;;;;;;;5044531;28;20426;-57
2022/04/11 03:58:36;;;;;;;5.57;5.07;;;;;;;;;;5046209;28;20060;-56
2022/04/11 04:10:11;;;;;;;10.93;4.80;;;;;;;;;;5004514;28;20026;-55
2022/04/11 04:12:47;;;;;;;5.57;4.50;;;;;;;;;;5026271;28;20068;-55
2022/04/11 04:18:27;;;;;;;6.10;5.50;;;;;;;;;;5045105;28;20055;-57
2022/04/11 04:21:28;;;;;;;5.90;4.90;;;;;;;;;;5025306;28;20050;-56
2022/04/11 04:24:03;;;;;;;5.17;4.67;;;;;;;;;;5019754;28;20061;-55
2022/04/11 04:26:50;;;;;;;7.43;5.30;;;;;;;;;;5025477;28;20056;-56
2022/04/11 04:29:28;;;;;;;7.10;4.57;;;;;;;;;;5008130;28;20117;-55
2022/04/11 04:35:18;;;;;;;8.83;4.77;;;;;;;;;;5013957;28;20460;-53
2022/04/11 04:38:00;;;;;;;6.77;5.17;;;;;;;;;;5013660;28;20389;-55
2022/04/11 04:43:27;;;;;;;7.60;5.13;;;;;;;;;;5013593;28;20105;-55
2022/04/11 04:46:25;;;;;;;6.27;4.90;;;;;;;;;;5014160;28;20029;-55
2022/04/11 04:49:12;;;;;;;5.90;5.10;;;;;;;;;;5012946;28;20114;-56
2022/04/11 04:52:01;;;;;;;5.40;4.87;;;;;;;;;;5013867;28;20100;-56
2022/04/11 04:57:49;;;;;;;6.07;4.13;;;;;;;;;;5002100;28;20436;-55
2022/04/11 05:00:41;;;;;;;6.83;4.87;;;;;;;;;;5010561;28;20039;-54
2022/04/11 05:03:36;;;;;;;7.50;6.07;;;;;;;;;;5013088;28;20068;-56
2022/04/11 05:06:46;;;;;;;7.53;5.17;;;;;;;;;;4977225;28;20050;-56
2022/04/11 05:09:45;;;;;;;;;;;;;;;;;;;;;
2022/04/11 05:15:52;;;;;;;;;;;;;;;;;;;;;
2022/04/11 05:21:20;;;;;;;5.77;5.13;;;;;;;;;;4993683;28;20165;-53
2022/04/11 05:24:02;;;;;;;5.20;4.70;;;;;;;;;;5000520;28;20038;-54
2022/04/11 05:30:33;;;;;;;;;;;;;;;;;;;;;
2022/04/11 05:33:19;;;;;;;;;;;;;;;;;;;;;
2022/04/11 05:35:57;;;;;;;33.55;8.00;;;;;;;;;;5016927;28;20038;-55
2022/04/11 05:42:04;;;;;;;;;;;;;;;;;;;;;
2022/04/11 05:44:41;;;;;;;10.43;5.82;;;;;;;;;;5000689;28;20527;-57
2022/04/11 05:47:37;;;;;;;17.92;5.88;;;;;;;;;;5016067;28;20029;-56
2022/04/11 05:50:03;;;;;;;6.95;5.13;;;;;;;;;;5012927;28;20069;-57
2022/04/11 05:53:08;;;;;;;;;;;;;;;;;;;;;
2022/04/11 05:55:47;;;;;;;9.27;6.15;;;;;;;;;;5014908;28;20407;-56
2022/04/11 05:58:20;;;;;;;6.13;5.13;;;;;;;;;;5013952;28;20026;-57
2022/04/11 06:04:35;;;;;;;6.57;4.63;;;;;;;;;;4936451;29;20543;-57
2022/04/11 06:07:27;;;;;;;7.95;4.32;;;;;;;;;;4936113;29;20573;-56
2022/04/11 06:12:54;;;;;;;7.13;5.82;;;;;;;;;;4975862;28;20069;-56
2022/04/11 06:15:43;;;;;;;5.57;3.92;;;;;;;;;;4994335;28;20480;-55
2022/04/11 06:18:25;;;;;;;5.57;4.70;;;;;;;;;;4988115;28;20098;-56
2022/04/11 06:24:08;;;;;;;7.55;4.85;;;;;;;;;;4995596;28;20368;-55
2022/04/11 06:26:50;;;;;;;;;;;;;;;;;;;;;
2022/04/11 06:29:19;;;;;;;5.75;5.10;;;;;;;;;;4992064;28;20036;-56
2022/04/11 06:32:02;;;;;;;7.53;5.85;;;;;;;;;;5015308;28;20022;-56
2022/04/11 06:34:44;;;;;;;;;;;;;;;;;;;;;
2022/04/11 06:37:16;;;;;;;6.43;5.20;;;;;;;;;;4973801;28;20047;-56
2022/04/11 06:40:02;;;;;;;6.90;5.00;;;;;;;;;;4973892;28;20027;-55
2022/04/11 06:42:53;;;;;;;8.30;5.57;;;;;;;;;;4950686;28;20489;-54
2022/04/11 06:57:00;;;;;;;6.78;4.88;;;;;;;;;;5015377;28;20301;-57
2022/04/11 06:59:54;;;;;;;6.78;4.85;;;;;;;;;;5003295;28;20104;-54
2022/04/11 07:02:59;;;;;;;5.53;4.57;;;;;;;;;;5013368;28;20649;-58
2022/04/11 07:05:38;;;;;;;7.75;5.97;;;;;;;;;;4935921;29;20059;-58
2022/04/11 07:08:46;;;;;;;6.93;5.40;;;;;;;;;;4934435;29;20083;-56
2022/04/11 07:11:47;;;;;;;7.10;4.53;;;;;;;;;;5001068;28;20037;-56
2022/04/11 07:23:49;;;;;;;5.53;4.35;;;;;;;;;;4947243;29;20134;-56
2022/04/11 07:26:36;;;;;;;7.80;4.43;;;;;;;;;;4954871;28;20130;-55
2022/04/11 07:29:38;;;;;;;5.22;4.43;;;;;;;;;;4944974;28;20171;-58
2022/04/11 07:38:35;;;;;;;7.43;4.40;;;;;;;;;;4913880;29;20043;-58
2022/04/11 07:47:40;;;;;;;;;;;;;;;;;;4885014;29;20037;-56
2022/04/11 07:50:13;;;;;;;4.68;3.20;;;;;;;;;;4896590;29;20354;-56
2022/04/11 07:53:21;;;;;;;5.43;3.90;;;;;;;;;;4906782;29;20486;-57
2022/04/11 07:59:41;;;;;;;4.72;3.60;;;;;;;;;;4947880;28;20054;-55
2022/04/11 08:02:17;;;;;;;8.50;4.35;;;;;;;;;;4931628;28;20074;-54
2022/04/11 08:05:19;;;;;;;5.13;3.50;;;;;;;;;;4967103;28;20026;-57
2022/04/11 08:13:30;;;;;;;3.95;2.97;;;;;;;;;;5013930;28;20492;-58
2022/04/11 08:19:28;;;;;;;4.18;3.05;;;;;;;;;;4982506;28;20037;-57
2022/04/11 08:22:19;;;;;;;;;;;;;;;;;;;;;
2022/04/11 08:24:58;;;;;;;7.30;4.30;;;;;;;;;;5010130;28;20030;-57
2022/04/11 08:28:05;;;;;;;4.72;3.78;;;;;;;;;;5012872;28;20123;-57
2022/04/11 08:30:40;;;;;;;4.97;3.08;;;;;;;;;;4988279;28;20042;-57
2022/04/11 08:33:27;;;;;;;4.35;3.00;;;;;;;;;;5011820;28;20546;-57
2022/04/11 08:36:26;;;;;;;4.53;4.13;;;;;;;;;;5013130;28;20447;-57
2022/04/11 08:42:23;;;;;;;8.10;4.10;;;;;;;;;;4989869;28;20038;-54
2022/04/11 08:44:58;;;;;;;3.97;3.22;;;;;;;;;;5001748;28;20499;-57
2022/04/11 08:48:23;;;;;;;4.63;3.03;;;;;;;;;;4993854;28;20165;-58
2022/04/11 08:51:07;;;;;;;3.38;2.88;;;;;;;;;;5010124;28;20029;-58
2022/04/11 08:53:44;;;;;;;4.78;3.28;;;;;;;;;;4970419;28;20042;-58
2022/04/11 09:00:05;;;;;;;6.35;3.28;;;;;;;;;;4909996;29;20044;-58
2022/04/11 09:02:48;;;;;;;;;;;;;;;;;;;;;
2022/04/11 09:05:39;;;;;;;5.43;3.08;;;;;;;;;;5005017;28;20117;-56
2022/04/11 09:08:30;;;;;;;8.43;2.90;;;;;;;;;;5013682;28;20034;-58
2022/04/11 09:11:20;;;;;;;3.08;2.40;;;;;;;;;;5025667;28;20491;-57
2022/04/11 09:17:02;;;;;;;3.85;2.92;;;;;;;;;;5011107;28;20492;-58
2022/04/11 09:19:38;;;;;;;3.53;1.93;;;;;;;;;;5015469;28;20017;-57
2022/04/11 09:25:30;;;;;;;3.72;2.03;;;;;;;;;;4938519;29;20035;-57
2022/04/11 09:28:19;;;;;;;2.50;2.10;;;;;;;;;;4938207;29;20043;-57
2022/04/11 09:33:56;;;;;;;4.43;2.42;;;;;;;;;;4932055;28;20035;-57
2022/04/11 09:36:46;;;;;;;3.20;2.00;;;;;;;;;;4963261;28;20548;-55
2022/04/11 09:45:49;;;;;;;3.28;2.42;;;;;;;;;;4983482;28;20037;-57
2022/04/11 09:48:28;;;;;;;3.03;2.00;;;;;;;;;;4998317;28;20026;-58
2022/04/11 09:51:17;;;;;;;4.15;2.50;;;;;;;;;;5007356;28;20448;-58
2022/04/11 09:53:51;;;;;;;2.55;1.65;;;;;;;;;;5021744;28;20491;-57
2022/04/11 09:56:48;;;;;;;3.03;2.15;;;;;;;;;;5018412;28;20378;-58
2022/04/11 09:59:56;;;;;;;3.92;1.95;;;;;;;;;;5016352;28;20088;-57
2022/04/11 10:02:58;;;;;;;;;;;;;;;;;;;;;
2022/04/11 10:05:25;;;;;;;3.17;1.85;;;;;;;;;;4960649;28;20050;-57
2022/04/11 10:11:18;;;;;;;4.85;2.28;;;;;;;;;;5003855;28;20034;-58
2022/04/11 10:14:28;;;;;;;4.97;2.45;;;;;;;;;;5005734;28;20488;-57
2022/04/11 10:17:29;;;;;;;;;;;;;;;;;;;;;
2022/04/11 10:20:09;;;;;;;4.15;2.20;;;;;;;;;;4998837;28;20430;-58
2022/04/11 10:25:58;;;;;;;8.05;1.95;;;;;;;;;;4918200;29;20531;-57
2022/04/11 10:32:10;;;;;;;3.17;1.88;;;;;;;;;;4981203;28;20053;-58
2022/04/11 10:38:09;;;;;;;5.57;2.28;;;;;;;;;;5000527;28;20077;-57
2022/04/11 10:40:52;;;;;;;2.63;1.70;;;;;;;;;;5015035;28;20094;-58
2022/04/11 10:46:51;;;;;;;4.72;2.22;;;;;;;;;;5001909;28;20034;-56
2022/04/11 10:49:37;;;;;;;;;;;;;;;;;;;;;
2022/04/11 10:52:48;;;;;;;4.85;1.98;;;;;;;;;;4990998;28;20478;-58
2022/04/11 10:55:15;;;;;;;2.22;1.88;;;;;;;;;;4953579;28;20497;-57
2022/04/11 11:03:57;;;;;;;3.08;1.77;;;;;;;;;;5014197;28;20073;-58
2022/04/11 11:06:44;;;;;;;4.80;2.22;;;;;;;;;;4994635;28;20061;-57
2022/04/11 11:09:27;;;;;;;3.53;2.05;;;;;;;;;;4993425;28;20030;-57
2022/04/11 11:15:28;;;;;;;3.42;2.17;;;;;;;;;;5013647;28;20542;-57
2022/04/11 11:18:16;;;;;;;2.55;1.70;;;;;;;;;;5012753;28;20034;-57
2022/04/11 11:21:16;;;;;;;3.58;1.95;;;;;;;;;;5003598;28;20484;-56
2022/04/11 11:26:53;;;;;;;4.47;2.03;;;;;;;;;;4933656;29;20130;-56
2022/04/11 11:29:40;;;;;;;4.20;2.40;;;;;;;;;;4932845;29;20533;-56
2022/04/11 11:32:35;;;;;;;3.13;1.42;;;;;;;;;;4984455;28;20025;-56
2022/04/11 11:35:14;;;;;;;3.65;2.00;;;;;;;;;;5012483;28;20508;-57
2022/04/11 11:37:50;;;;;;;3.38;1.80;;;;;;;;;;4950737;28;20030;-57
2022/04/11 11:40:39;;;;;;;;;;;;;;;;;;;;;
2022/04/11 11:53:00;;;;;;;3.08;1.92;;;;;;;;;;4994475;28;20042;-57
2022/04/11 11:55:48;;;;;;;2.35;1.58;;;;;;;;;;5005240;28;20040;-57
2022/04/11 11:58:35;;;;;;;3.70;1.95;;;;;;;;;;5012154;28;20519;-57
2022/04/11 12:10:07;;;;;;;6.65;2.25;;;;;;;;;;4976800;28;20034;-58
2022/04/11 12:16:31;;;;;;;7.28;2.15;;;;;;;;;;4991514;28;20182;-59
2022/04/11 12:19:25;;;;;;;5.50;2.45;;;;;;;;;;4925446;29;20032;-58
2022/04/11 12:22:13;;;;;;;2.38;1.83;;;;;;;;;;4993618;28;20034;-59
2022/04/11 12:24:55;;;;;;;2.70;1.73;;;;;;;;;;5000548;28;20080;-59
2022/04/11 12:30:28;;;;;;;3.38;1.98;;;;;;;;;;5013815;28;20032;-59
2022/04/11 12:33:13;;;;;;;2.67;1.40;;;;;;;;;;5012609;28;20503;-59
2022/04/11 12:36:12;;;;;;;;;;;;;;;;;;;;;
2022/04/11 12:38:59;;;;;;;4.57;2.35;;;;;;;;;;5012491;28;20124;-60
2022/04/11 12:44:40;;;;;;;3.70;2.10;;;;;;;;;;5013578;28;20044;-57
2022/04/11 12:53:35;;;;;;;3.45;2.00;;;;;;;;;;5013583;28;20526;-58
2022/04/11 12:59:17;;;;;;;;;;;;;;;;;;;;;
2022/04/11 13:02:10;;;;;;;6.03;4.22;;;;;;;;;;5002737;28;20480;-58
2022/04/11 13:05:12;;;;;;;4.22;2.65;;;;;;;;;;5011591;28;20546;-58
2022/04/11 13:07:49;;;;;;;4.30;2.78;;;;;;;;;;5010962;28;20064;-56
2022/04/11 13:10:56;;;;;;;3.03;1.92;;;;;;;;;;5010510;28;20053;-56
2022/04/11 13:13:41;;;;;;;2.95;1.70;;;;;;;;;;4994933;28;20515;-57
2022/04/11 13:22:25;;;;;;;3.95;2.58;;;;;;;;;;4971942;28;20085;-54
2022/04/11 13:28:11;;;;;;;3.70;2.25;;;;;;;;;;5006760;28;20041;-54
2022/04/11 13:31:22;;;;;;;3.55;1.98;;;;;;;;;;5007227;28;20284;-56
2022/04/11 13:34:00;;;;;;;5.55;3.20;;;;;;;;;;4993980;28;20484;-57
2022/04/11 13:39:44;;;;;;;3.92;2.30;;;;;;;;;;5013570;28;20096;-57
2022/04/11 13:48:58;;;;;;;4.22;2.65;;;;;;;;;;4986283;28;20026;-56
2022/04/11 13:51:27;;;;;;;4.10;2.63;;;;;;;;;;5009365;28;20495;-56
2022/04/11 13:57:21;;;;;;;4.63;2.78;;;;;;;;;;4992751;28;20029;-55
2022/04/11 14:00:07;;;;;;;3.95;2.72;;;;;;;;;;5009805;28;20036;-57
2022/04/11 14:02:51;;;;;;;3.10;2.13;;;;;;;;;;5016611;28;20376;-53
2022/04/11 14:05:54;;;;;;;3.83;2.25;;;;;;;;;;5015251;28;20554;-54
2022/04/11 14:08:26;;;;;;;3.55;2.53;;;;;;;;;;5011992;28;20033;-54
2022/04/11 14:11:34;;;;;;;3.33;2.17;;;;;;;;;;5013704;28;20827;-57
2022/04/11 14:14:28;;;;;;;4.72;2.78;;;;;;;;;;4976111;28;20489;-57
2022/04/11 14:32:38;;;;;;;3.78;3.03;;;;;;;;;;4942890;28;20024;-55
2022/04/11 14:35:27;;;;;;;3.95;2.83;;;;;;;;;;5012452;28;20034;-57
2022/04/11 14:38:12;;;;;;;4.97;3.55;;;;;;;;;;4976268;28;20034;-57
2022/04/11 14:52:56;;;;;;;;;;;;;;;;;;;;;
2022/04/11 14:56:01;;;;;;;4.20;2.97;;;;;;;;;;5006666;28;20044;-57
2022/04/11 14:58:37;;;;;;;4.45;3.33;;;;;;;;;;5010572;28;20121;-56
2022/04/11 15:01:41;;;;;;;3.80;2.78;;;;;;;;;;5013800;28;20030;-57
2022/04/11 15:04:21;;;;;;;;;;;;;;;;;;;;;
2022/04/11 15:07:02;;;;;;;3.80;2.72;;;;;;;;;;5014621;28;20026;-56
2022/04/11 15:09:49;;;;;;;4.30;3.08;;;;;;;;;;4996514;28;20523;-56
2022/04/11 15:12:41;;;;;;;4.88;3.10;;;;;;;;;;4994398;28;20026;-56
2022/04/11 15:15:43;;;;;;;4.47;2.70;;;;;;;;;;4996415;28;20034;-57
2022/04/11 15:18:23;;;;;;;5.88;3.58;;;;;;;;;;4952424;28;20035;-57
2022/04/11 15:21:09;;;;;;;5.57;2.70;;;;;;;;;;5014857;28;20046;-55
2022/04/11 15:23:38;;;;;;;4.80;3.17;;;;;;;;;;5013225;28;20042;-55
2022/04/11 15:26:10;;;;;;;6.80;2.70;;;;;;;;;;5008190;28;20030;-55
2022/04/11 15:28:48;;;;;;;5.82;3.20;;;;;;;;;;5007208;28;20036;-54
2022/04/11 15:31:45;;;;;;;5.38;3.35;;;;;;;;;;5008939;28;20022;-57
2022/04/11 15:34:42;;;;;;;4.78;3.63;;;;;;;;;;5013869;28;20030;-56
2022/04/11 15:37:38;;;;;;;3.22;2.40;;;;;;;;;;4933389;29;20040;-56
2022/04/11 15:40:41;;;;;;;4.82;3.03;;;;;;;;;;4933607;29;20209;-57
2022/04/11 15:43:25;;;;;;;5.38;3.13;;;;;;;;;;5013990;28;20559;-55
2022/04/11 15:46:08;;;;;;;;;;;;;;;;;;;;;
2022/04/11 15:52:48;;;;;;;3.55;2.45;;;;;;;;;;4957917;28;20103;-57
2022/04/11 15:58:24;;;;;;;4.93;3.05;;;;;;;;;;4919168;29;20083;-57
2022/04/11 16:10:03;;;;;;;5.07;2.92;;;;;;;;;;4966442;28;20085;-57
2022/04/11 16:12:51;;;;;;;;;;;;;;;;;;;;;
2022/04/11 16:15:27;;;;;;;3.95;2.42;;;;;;;;;;4983077;28;20428;-55
2022/04/11 16:18:24;;;;;;;4.65;3.00;;;;;;;;;;4963207;28;20571;-58
2022/04/11 16:21:13;;;;;;;3.40;2.60;;;;;;;;;;4960760;28;20040;-57
2022/04/11 16:23:48;;;;;;;3.70;2.33;;;;;;;;;;4991027;28;20045;-57
2022/04/11 16:26:54;;;;;;;;;;;;;;;;;;;;;
2022/04/11 16:29:29;;;;;;;4.55;2.92;;;;;;;;;;5011932;28;20041;-57
2022/04/11 16:32:10;;;;;;;;;;;;;;;;;;;;;
2022/04/11 16:37:51;;;;;;;4.60;3.20;;;;;;;;;;5001639;28;20049;-56
2022/04/11 16:40:38;;;;;;;4.28;2.63;;;;;;;;;;5006274;28;20511;-57
2022/04/11 16:49:06;;;;;;;4.78;2.83;;;;;;;;;;5007239;28;20060;-57
2022/04/11 16:52:08;;;;;;;3.58;2.33;;;;;;;;;;5013036;28;20120;-57
2022/04/11 16:54:57;;;;;;;6.35;2.60;;;;;;;;;;4924409;29;20047;-57
2022/04/11 16:57:28;;;;;;;3.72;2.60;;;;;;;;;;4925061;28;20049;-56
2022/04/11 17:00:12;;;;;;;2.72;1.77;;;;;;;;;;5009942;28;20030;-58
2022/04/11 17:02:51;;;;;;;4.72;2.50;;;;;;;;;;5005593;28;20137;-57
2022/04/11 17:05:34;;;;;;;5.63;2.75;;;;;;;;;;5012504;28;20045;-57
2022/04/11 17:08:15;;;;;;;2.92;2.10;;;;;;;;;;5009911;28;20129;-57
2022/04/11 17:11:20;;;;;;;3.30;2.33;;;;;;;;;;5011983;28;20034;-56
2022/04/11 17:14:08;;;;;;;3.97;2.53;;;;;;;;;;5010462;28;20046;-57
2022/04/11 17:22:09;;;;;;;3.50;2.40;;;;;;;;;;5011659;28;20037;-57
2022/04/11 17:25:08;;;;;;;3.90;2.42;;;;;;;;;;5010924;28;20100;-57
2022/04/11 17:27:43;;;;;;;3.95;2.33;;;;;;;;;;5012457;28;20034;-57
2022/04/11 17:30:35;;;;;;;;;;;;;;;;;;;;;
2022/04/11 17:36:43;;;;;;;3.90;2.47;;;;;;;;;;5014188;28;20068;-57
2022/04/11 17:39:24;;;;;;;3.75;1.98;;;;;;;;;;4982658;28;20021;-53
2022/04/11 17:42:12;;;;;;;2.83;1.88;;;;;;;;;;5012560;28;20041;-54
2022/04/11 17:44:40;;;;;;;2.72;1.90;;;;;;;;;;5010924;28;20455;-53
2022/04/11 17:47:30;;;;;;;5.15;2.15;;;;;;;;;;5014399;28;20582;-56
2022/04/11 17:50:10;;;;;;;4.68;2.83;;;;;;;;;;5013431;28;20411;-55
2022/04/11 17:52:55;;;;;;;4.03;2.42;;;;;;;;;;5013690;28;20512;-56
2022/04/11 17:55:25;;;;;;;3.50;2.28;;;;;;;;;;5012522;28;20404;-54
2022/04/11 17:58:21;;;;;;;6.65;2.97;;;;;;;;;;5013423;28;20333;-56
2022/04/11 18:01:00;;;;;;;4.43;2.67;;;;;;;;;;5008194;28;20488;-56
2022/04/11 18:03:29;;;;;;;6.57;2.63;;;;;;;;;;5001479;28;20087;-55
2022/04/11 18:06:08;;;;;;;3.90;2.80;;;;;;;;;;5012311;28;20120;-56
2022/04/11 18:09:02;;;;;;;5.75;2.60;;;;;;;;;;5010239;28;20464;-56
2022/04/11 18:11:38;;;;;;;5.18;2.97;;;;;;;;;;4985976;28;20048;-55
2022/04/11 18:14:29;;;;;;;6.13;2.83;;;;;;;;;;5013492;28;20500;-55
2022/04/11 18:17:27;;;;;;;4.15;3.08;;;;;;;;;;5013382;28;20538;-56
2022/04/11 18:20:16;;;;;;;5.55;3.40;;;;;;;;;;4978115;28;20145;-56
2022/04/11 18:31:48;;;;;;;5.20;3.22;;;;;;;;;;4994556;28;20041;-55
2022/04/11 18:34:30;;;;;;;5.03;3.28;;;;;;;;;;4993122;28;20456;-55
2022/04/11 18:37:21;;;;;;;;;;;;;;;;;;;;;
2022/04/11 18:40:12;;;;;;;23.85;14.85;;;;;;;;;;5004139;28;20037;-55
2022/04/11 18:45:38;;;;;;;15.20;10.00;;;;;;;;;;4972808;28;20586;-56
2022/04/11 18:48:16;;;;;;;7.35;4.55;;;;;;;;;;4941194;28;20039;-55
2022/04/11 18:51:08;;;;;;;5.80;3.67;;;;;;;;;;4954816;28;20042;-54
2022/04/11 18:53:38;;;;;;;5.53;4.18;;;;;;;;;;4952356;29;20511;-56
2022/04/11 18:56:32;;;;;;;4.38;3.42;;;;;;;;;;4952003;28;20063;-55
2022/04/11 19:02:32;;;;;;;8.07;5.68;;;;;;;;;;4956779;28;20776;-57
2022/04/11 19:11:16;;;;;;;8.82;5.03;;;;;;;;;;4951563;29;20203;-56
2022/04/11 19:13:47;;;;;;;8.98;4.57;;;;;;;;;;4913934;29;20032;-55
2022/04/11 19:16:45;;;;;;;7.68;4.55;;;;;;;;;;4883324;29;20378;-56
2022/04/11 19:20:02;;;;;;;6.65;4.32;;;;;;;;;;4904631;29;20042;-56
2022/04/11 19:22:22;;;;;;;6.50;4.10;;;;;;;;;;4926406;29;20039;-56
2022/04/11 19:25:13;;;;;;;6.50;4.10;;;;;;;;;;4931682;29;20079;-56
2022/04/11 19:30:35;;;;;;;7.05;4.05;;;;;;;;;;4926036;29;20118;-52
2022/04/11 19:33:19;;;;;;;6.55;4.78;;;;;;;;;;4932334;29;20560;-51
2022/04/11 19:39:58;;;;;;;7.10;3.83;;;;;;;;;;4966874;28;20038;-55
2022/04/11 19:45:13;;;;;;;5.82;4.38;;;;;;;;;;5012014;28;20049;-55
2022/04/11 19:50:43;;;;;;;4.97;4.07;;;;;;;;;;5011859;28;20056;-54
2022/04/11 19:53:23;;;;;;;7.85;4.57;;;;;;;;;;5010970;28;20037;-56
2022/04/11 19:55:58;;;;;;;5.43;4.68;;;;;;;;;;4950606;29;20092;-56
2022/04/11 19:58:46;;;;;;;5.60;4.03;;;;;;;;;;4950316;29;20043;-53
2022/04/11 20:01:14;;;;;;;5.07;4.22;;;;;;;;;;4993901;28;20519;-55
2022/04/11 20:04:35;;;;;;;;;;;;;;;;;;;;;
2022/04/11 20:10:41;;;;;;;;;;;;;;;;;;;;;
2022/04/11 20:13:22;;;;;;;10.02;5.50;;;;;;;;;;5006114;28;20033;-57
2022/04/11 20:16:19;;;;;;;6.35;4.40;;;;;;;;;;5010776;28;20113;-51
2022/04/11 20:18:55;;;;;;;7.10;4.65;;;;;;;;;;5010858;28;20506;-57
2022/04/11 20:24:53;;;;;;;;;;;;;;;;;;;;;
2022/04/11 20:31:12;;;;;;;8.98;5.60;;;;;;;;;;4995846;28;20034;-57
2022/04/11 20:33:59;;;;;;;7.03;3.97;;;;;;;;;;4940606;28;20036;-57
2022/04/11 20:36:25;;;;;;;9.65;5.88;;;;;;;;;;5012749;28;20353;-57
2022/04/11 20:39:00;;;;;;;5.63;4.95;;;;;;;;;;5011862;28;20065;-55
2022/04/11 20:41:54;;;;;;;9.30;4.90;;;;;;;;;;5013514;28;20026;-54
2022/04/11 20:45:02;;;;;;;;;;;;;;;;;;;;;
2022/04/11 20:50:49;;;;;;;8.10;5.38;;;;;;;;;;4969681;28;20464;-53
2022/04/11 20:53:15;;;;;;;6.88;5.07;;;;;;;;;;5017730;28;20038;-54
2022/04/11 21:01:49;;;;;;;;;;;;;;;;;;4939135;29;19918;-56
2022/04/11 21:04:36;;;;;;;10.18;5.32;;;;;;;;;;5010690;28;19924;-57
2022/04/11 21:07:06;;;;;;;7.07;5.57;;;;;;;;;;5024648;28;20022;-55
2022/04/11 21:10:20;;;;;;;7.37;4.20;;;;;;;;;;5022950;28;20061;-56
2022/04/11 21:13:05;;;;;;;9.43;5.15;;;;;;;;;;4944661;29;20064;-53
2022/04/11 21:18:49;;;;;;;10.40;5.93;;;;;;;;;;5022822;28;20061;-55
2022/04/11 21:21:38;;;;;;;8.57;5.75;;;;;;;;;;5024783;28;20101;-55
2022/04/11 21:24:24;;;;;;;9.73;5.35;;;;;;;;;;5024672;28;20053;-56
2022/04/11 21:27:19;;;;;;;7.68;5.40;;;;;;;;;;5024611;28;20121;-56
2022/04/11 21:30:03;;;;;;;7.15;4.93;;;;;;;;;;5024601;28;20041;-54
2022/04/11 21:32:44;;;;;;;8.38;5.10;;;;;;;;;;5023518;28;20045;-54
2022/04/11 21:35:26;;;;;;;13.10;6.35;;;;;;;;;;5023999;28;20061;-56
2022/04/11 21:38:22;;;;;;;9.40;6.28;;;;;;;;;;5023300;28;20480;-56
2022/04/11 21:40:56;;;;;;;7.40;5.82;;;;;;;;;;5023783;28;20030;-54
2022/04/11 21:43:43;;;;;;;7.18;5.13;;;;;;;;;;5024306;28;20105;-54
2022/04/11 21:46:16;;;;;;;8.07;5.45;;;;;;;;;;5024285;28;20480;-56
2022/04/11 21:51:52;;;;;;;10.80;5.75;;;;;;;;;;5024403;28;20079;-57
2022/04/11 21:54:44;;;;;;;9.45;5.82;;;;;;;;;;5023663;28;20029;-54
2022/04/11 21:57:23;;;;;;;8.45;5.15;;;;;;;;;;5023663;28;20029;-54
2022/04/11 22:03:20;;;;;;;8.25;5.45;;;;;;;;;;5023838;28;20056;-54
2022/04/11 22:06:25;;;;;;;7.88;5.47;;;;;;;;;;5021828;28;20068;-53
2022/04/11 22:09:10;;;;;;;9.75;6.75;;;;;;;;;;4983496;28;20042;-54
2022/04/11 22:11:53;;;;;;;9.65;6.55;;;;;;;;;;5024836;28;20062;-54
2022/04/11 22:14:36;;;;;;;9.75;5.72;;;;;;;;;;5012470;28;20037;-51
2022/04/11 22:17:25;;;;;;;;;;;;;;;;;;;;;
2022/04/11 22:20:04;;;;;;;9.05;6.07;;;;;;;;;;4977480;28;20129;-51
2022/04/11 22:22:40;;;;;;;7.32;5.45;;;;;;;;;;5028094;28;20033;-53
2022/04/11 22:25:43;;;;;;;;;;;;;;;;;;;;;
2022/04/11 22:28:22;;;;;;;8.35;5.90;;;;;;;;;;4988109;28;20058;-54
2022/04/11 22:31:07;;;;;;;8.60;5.18;;;;;;;;;;5027680;28;20034;-53
2022/04/11 22:33:43;;;;;;;10.52;6.18;;;;;;;;;;5027125;28;20069;-55
2022/04/11 22:36:37;;;;;;;8.07;5.03;;;;;;;;;;5026766;28;20104;-53
2022/04/11 22:39:03;;;;;;;6.25;5.28;;;;;;;;;;5025176;28;20038;-52
2022/04/11 22:41:42;;;;;;;8.52;5.68;;;;;;;;;;5026130;28;20033;-51
2022/04/11 22:44:16;;;;;;;11.38;5.88;;;;;;;;;;5027190;28;20038;-52
2022/04/11 22:47:00;;;;;;;9.70;5.82;;;;;;;;;;5025275;28;20042;-55
2022/04/11 22:53:17;;;;;;;9.27;5.95;;;;;;;;;;5016237;28;20034;-51
2022/04/11 22:56:06;;;;;;;6.07;4.35;;;;;;;;;;4946286;29;20050;-55
2022/04/11 22:59:06;;;;;;;7.70;5.40;;;;;;;;;;4945367;29;20035;-54
2022/04/11 23:01:43;;;;;;;6.35;4.65;;;;;;;;;;5026592;28;20029;-55
2022/04/11 23:04:18;;;;;;;9.65;6.20;;;;;;;;;;5024366;28;20068;-52
2022/04/11 23:07:20;;;;;;;10.43;6.10;;;;;;;;;;5023124;28;20038;-55
2022/04/11 23:10:03;;;;;;;7.53;5.20;;;;;;;;;;5021183;28;20041;-52
2022/04/11 23:15:38;;;;;;;8.93;5.65;;;;;;;;;;5021854;28;20037;-52
2022/04/11 23:21:19;;;;;;;7.60;5.20;;;;;;;;;;4999748;28;20037;-54
2022/04/11 23:24:12;;;;;;;8.60;5.15;;;;;;;;;;5026722;28;20033;-54
2022/04/11 23:26:57;;;;;;;6.40;5.25;;;;;;;;;;4996049;28;20408;-53
2022/04/11 23:29:32;;;;;;;8.60;5.68;;;;;;;;;;5025449;28;20037;-55
2022/04/11 23:32:18;;;;;;;7.22;5.78;;;;;;;;;;5026373;28;20018;-50
2022/04/11 23:35:09;;;;;;;7.45;5.45;;;;;;;;;;5026537;28;20025;-55
2022/04/11 23:37:54;;;;;;;7.18;5.15;;;;;;;;;;5025690;28;20021;-55
2022/04/11 23:43:18;;;;;;;6.60;5.40;;;;;;;;;;5026685;28;20054;-52
2022/04/11 23:46:15;;;;;;;6.97;4.75;;;;;;;;;;5025714;28;20041;-52
2022/04/11 23:49:01;;;;;;;8.15;4.68;;;;;;;;;;5025201;28;20056;-53
2022/04/11 23:52:02;;;;;;;8.82;5.60;;;;;;;;;;5024789;28;20038;-53
2022/04/11 23:54:52;;;;;;;7.43;5.55;;;;;;;;;;4983924;28;20046;-54
2022/04/11 23:57:25;;;;;;;7.07;5.28;;;;;;;;;;5006599;28;20029;-50
